Time;durP1;ratioP1;P1;durP2;ratioP2;P2;SDS_P1;SDS_P2;PMS_P1;PMS_P2;Temp;Humidity;BMP_temperature;BMP_pressure;BME280_temperature;BME280_humidity;BME280_pressure;Samples;Min_cycle;Max_cycle;Signal;HPM_P1;HPM_P2
2023/03/20 00:01:25;;;;;;;0.00;0.00;;;;;;;;;;5033892;28;20505;-94
2023/03/20 00:03:55;;;;;;;0.00;0.00;;;;;;;;;;5034597;28;20124;-94
2023/03/20 00:06:25;;;;;;;0.00;0.00;;;;;;;;;;5033424;28;20061;-94
2023/03/20 00:08:52;;;;;;;0.00;0.00;;;;;;;;;;4998019;28;20080;-93
2023/03/20 00:11:25;;;;;;;0.08;0.03;;;;;;;;;;4982039;28;20052;-95
2023/03/20 00:13:51;;;;;;;0.00;0.00;;;;;;;;;;4998400;28;20540;-93
2023/03/20 00:16:17;;;;;;;0.00;0.00;;;;;;;;;;4997816;28;20048;-95
2023/03/20 00:18:43;;;;;;;0.00;0.00;;;;;;;;;;4997915;28;20124;-94
2023/03/20 00:21:15;;;;;;;0.00;0.00;;;;;;;;;;4981123;28;20038;-94
2023/03/20 00:23:41;;;;;;;0.00;0.00;;;;;;;;;;4997790;28;20038;-94
2023/03/20 00:26:09;;;;;;;0.00;0.00;;;;;;;;;;4997606;28;20096;-93
2023/03/20 00:28:39;;;;;;;0.00;0.00;;;;;;;;;;4981676;28;20073;-95
2023/03/20 00:31:06;;;;;;;0.00;0.00;;;;;;;;;;4997375;28;20100;-94
2023/03/20 00:33:32;;;;;;;0.00;0.00;;;;;;;;;;4997412;28;20060;-95
2023/03/20 00:35:58;;;;;;;0.00;0.00;;;;;;;;;;4997560;28;20128;-95
2023/03/20 00:38:24;;;;;;;0.25;0.00;;;;;;;;;;4997381;28;20045;-96
2023/03/20 00:40:55;;;;;;;0.00;0.00;;;;;;;;;;4997674;28;20053;-94
2023/03/20 00:43:21;;;;;;;0.00;0.00;;;;;;;;;;4997446;28;20091;-95
2023/03/20 00:45:47;;;;;;;0.00;0.00;;;;;;;;;;4997024;28;20128;-94
2023/03/20 00:48:14;;;;;;;0.00;0.00;;;;;;;;;;4997185;28;20053;-94
2023/03/20 00:50:40;;;;;;;0.00;0.00;;;;;;;;;;4997551;28;20053;-94
2023/03/20 00:53:09;;;;;;;0.00;0.00;;;;;;;;;;5014549;28;20424;-95
2023/03/20 00:55:36;;;;;;;0.00;0.00;;;;;;;;;;4997542;28;20128;-95
2023/03/20 00:58:02;;;;;;;0.00;0.00;;;;;;;;;;4996781;28;20129;-95
2023/03/20 01:00:41;;;;;;;0.00;0.00;;;;;;;;;;4999721;28;20056;-94
2023/03/20 01:03:12;;;;;;;0.00;0.00;;;;;;;;;;4997175;28;20042;-94
2023/03/20 01:05:39;;;;;;;0.00;0.00;;;;;;;;;;4996870;28;20397;-95
2023/03/20 01:08:06;;;;;;;0.00;0.00;;;;;;;;;;5022427;28;20108;-93
2023/03/20 01:10:32;;;;;;;0.00;0.00;;;;;;;;;;5034102;28;20043;-95
2023/03/20 01:13:00;;;;;;;0.00;0.00;;;;;;;;;;5032458;28;20101;-93
2023/03/20 01:15:29;;;;;;;0.00;0.00;;;;;;;;;;5032754;28;20132;-94
2023/03/20 01:17:55;;;;;;;0.00;0.00;;;;;;;;;;5032508;28;20048;-93
2023/03/20 01:20:24;;;;;;;0.00;0.00;;;;;;;;;;5032705;28;20045;-95
2023/03/20 01:22:50;;;;;;;0.00;0.00;;;;;;;;;;5032732;28;20081;-94
2023/03/20 01:25:16;;;;;;;0.00;0.00;;;;;;;;;;5033202;28;20392;-94
2023/03/20 01:27:52;;;;;;;0.00;0.00;;;;;;;;;;5033760;28;20041;-95
2023/03/20 01:30:18;;;;;;;0.00;0.00;;;;;;;;;;5032504;28;20049;-94
2023/03/20 01:32:45;;;;;;;0.00;0.00;;;;;;;;;;5033507;28;20389;-94
2023/03/20 01:35:15;;;;;;;0.00;0.00;;;;;;;;;;5033669;28;20060;-95
2023/03/20 01:37:42;;;;;;;2.35;0.85;;;;;;;;;;5032540;28;20041;-93
2023/03/20 01:40:31;;;;;;;0.00;0.00;;;;;;;;;;5032697;28;20049;-93
2023/03/20 01:42:57;;;;;;;0.00;0.00;;;;;;;;;;5016235;28;20148;-92
2023/03/20 01:45:26;;;;;;;0.00;0.00;;;;;;;;;;5032557;28;20037;-94
2023/03/20 01:47:52;;;;;;;0.00;0.00;;;;;;;;;;5033055;28;20045;-95
2023/03/20 01:50:21;;;;;;;0.00;0.00;;;;;;;;;;5032600;28;20041;-93
2023/03/20 01:52:48;;;;;;;0.00;0.00;;;;;;;;;;5032181;28;20055;-94
2023/03/20 01:55:14;;;;;;;0.00;0.00;;;;;;;;;;5032401;28;20042;-94
2023/03/20 01:57:40;;;;;;;0.00;0.00;;;;;;;;;;5034789;28;20115;-93
2023/03/20 02:00:10;;;;;;;0.00;0.00;;;;;;;;;;5036548;28;20041;-94
2023/03/20 02:02:37;;;;;;;0.00;0.00;;;;;;;;;;5019762;28;20054;-92
2023/03/20 02:05:06;;;;;;;0.00;0.00;;;;;;;;;;5037545;28;20041;-94
2023/03/20 02:07:34;;;;;;;0.10;0.00;;;;;;;;;;5035851;28;20424;-94
2023/03/20 02:10:01;;;;;;;0.00;0.00;;;;;;;;;;5019674;28;20110;-93
2023/03/20 02:12:27;;;;;;;0.00;0.00;;;;;;;;;;5035740;28;20041;-92
2023/03/20 02:14:53;;;;;;;0.00;0.00;;;;;;;;;;5036663;28;20504;-95
2023/03/20 02:17:20;;;;;;;0.00;0.00;;;;;;;;;;5036651;28;20076;-94
2023/03/20 02:19:49;;;;;;;0.00;0.00;;;;;;;;;;5035880;28;20603;-94
2023/03/20 02:22:34;;;;;;;0.00;0.00;;;;;;;;;;5035898;28;20420;-94
2023/03/20 02:25:20;;;;;;;0.15;0.10;;;;;;;;;;5036287;28;20396;-94
2023/03/20 02:28:05;;;;;;;0.00;0.00;;;;;;;;;;5035797;28;20041;-94
2023/03/20 02:30:42;;;;;;;0.00;0.00;;;;;;;;;;5035863;28;20049;-93
2023/03/20 02:33:11;;;;;;;0.10;0.10;;;;;;;;;;5035757;28;20042;-92
2023/03/20 02:35:55;;;;;;;0.28;0.00;;;;;;;;;;5036160;28;20076;-91
2023/03/20 02:38:34;;;;;;;0.00;0.00;;;;;;;;;;5035801;28;20037;-93
2023/03/20 02:41:02;;;;;;;0.00;0.00;;;;;;;;;;5035695;28;20144;-95
2023/03/20 02:43:54;;;;;;;0.00;0.00;;;;;;;;;;5035449;28;20509;-92
2023/03/20 02:46:36;;;;;;;0.00;0.00;;;;;;;;;;5028817;28;20045;-93
2023/03/20 02:49:10;;;;;;;0.00;0.00;;;;;;;;;;5035416;28;20045;-92
2023/03/20 02:51:39;;;;;;;0.00;0.00;;;;;;;;;;5035828;28;20053;-94
2023/03/20 02:54:27;;;;;;;0.00;0.00;;;;;;;;;;5035510;28;20477;-93
2023/03/20 02:56:59;;;;;;;0.00;0.00;;;;;;;;;;5035515;28;20075;-94
2023/03/20 02:59:25;;;;;;;0.00;0.00;;;;;;;;;;5018865;28;20041;-91
2023/03/20 03:01:54;;;;;;;0.00;0.00;;;;;;;;;;5036468;28;20156;-91
2023/03/20 03:04:26;;;;;;;0.00;0.00;;;;;;;;;;5034970;28;20500;-92
2023/03/20 03:06:54;;;;;;;0.00;0.00;;;;;;;;;;5035332;28;20057;-92
2023/03/20 03:09:35;;;;;;;0.00;0.00;;;;;;;;;;5035640;28;20048;-93
2023/03/20 03:12:06;;;;;;;0.00;0.00;;;;;;;;;;5034722;28;20033;-94
2023/03/20 03:14:43;;;;;;;4.88;0.22;;;;;;;;;;5034736;28;20041;-93
2023/03/20 03:17:10;;;;;;;0.00;0.00;;;;;;;;;;5035012;28;20052;-93
2023/03/20 03:19:37;;;;;;;0.00;0.00;;;;;;;;;;5018703;28;20076;-92
2023/03/20 03:22:04;;;;;;;0.25;0.13;;;;;;;;;;5036024;28;20040;-92
2023/03/20 03:24:30;;;;;;;0.00;0.00;;;;;;;;;;5034984;28;20397;-93
2023/03/20 03:27:01;;;;;;;0.20;0.10;;;;;;;;;;5034795;28;20076;-92
2023/03/20 03:29:30;;;;;;;0.45;0.28;;;;;;;;;;5035440;28;20116;-94
2023/03/20 03:31:56;;;;;;;0.00;0.00;;;;;;;;;;5035166;28;20056;-93
2023/03/20 03:34:25;;;;;;;0.00;0.00;;;;;;;;;;5034643;28;20041;-94
2023/03/20 03:36:54;;;;;;;0.00;0.00;;;;;;;;;;5034843;28;20041;-93
2023/03/20 03:39:26;;;;;;;0.00;0.00;;;;;;;;;;5037752;28;20061;-92
2023/03/20 03:42:08;;;;;;;0.00;0.00;;;;;;;;;;5039023;28;20124;-93
2023/03/20 03:44:53;;;;;;;0.00;0.00;;;;;;;;;;5039353;28;20037;-93
2023/03/20 03:47:22;;;;;;;0.00;0.00;;;;;;;;;;5038272;28;20042;-92
2023/03/20 03:49:55;;;;;;;0.10;0.10;;;;;;;;;;5034169;28;20060;-93
2023/03/20 03:52:23;;;;;;;0.00;0.00;;;;;;;;;;5035924;28;20497;-92
2023/03/20 03:54:52;;;;;;;0.00;0.00;;;;;;;;;;5034301;28;20179;-95
2023/03/20 03:57:23;;;;;;;0.00;0.00;;;;;;;;;;5035460;28;20052;-96
2023/03/20 03:59:50;;;;;;;0.00;0.00;;;;;;;;;;5034094;28;20127;-95
2023/03/20 04:02:18;;;;;;;0.10;0.00;;;;;;;;;;5034942;28;20045;-94
2023/03/20 04:04:46;;;;;;;0.00;0.00;;;;;;;;;;5035096;28;20112;-94
2023/03/20 04:07:13;;;;;;;2.10;2.00;;;;;;;;;;5027430;28;20085;-96
2023/03/20 04:09:39;;;;;;;0.00;0.00;;;;;;;;;;4997714;28;20580;-96
2023/03/20 04:12:05;;;;;;;0.10;0.10;;;;;;;;;;5015382;28;20182;-93
2023/03/20 04:14:31;;;;;;;0.10;0.00;;;;;;;;;;5014527;28;20085;-94
2023/03/20 04:16:57;;;;;;;0.05;0.00;;;;;;;;;;4997678;28;20050;-94
2023/03/20 04:19:23;;;;;;;0.20;0.00;;;;;;;;;;4997164;28;20315;-94
2023/03/20 04:21:49;;;;;;;0.00;0.00;;;;;;;;;;4996950;28;20053;-94
2023/03/20 04:24:15;;;;;;;0.00;0.00;;;;;;;;;;4997646;28;20117;-96
2023/03/20 04:26:42;;;;;;;0.00;0.00;;;;;;;;;;4997829;28;20129;-93
2023/03/20 04:29:08;;;;;;;0.00;0.00;;;;;;;;;;4997417;28;20037;-91
2023/03/20 04:31:35;;;;;;;1.13;0.43;;;;;;;;;;4997445;28;20109;-94
2023/03/20 04:34:01;;;;;;;0.30;0.20;;;;;;;;;;5014816;28;20038;-93
2023/03/20 04:36:27;;;;;;;0.00;0.00;;;;;;;;;;4997820;28;20061;-92
2023/03/20 04:38:54;;;;;;;0.00;0.00;;;;;;;;;;4981182;28;20046;-93
2023/03/20 04:41:20;;;;;;;0.00;0.00;;;;;;;;;;4997306;28;20042;-93
2023/03/20 04:43:46;;;;;;;0.52;0.20;;;;;;;;;;4997425;28;20038;-94
2023/03/20 04:46:12;;;;;;;0.00;0.00;;;;;;;;;;4997439;28;20038;-94
2023/03/20 04:48:38;;;;;;;0.00;0.00;;;;;;;;;;4997352;28;20108;-94
2023/03/20 04:51:04;;;;;;;0.00;0.00;;;;;;;;;;4996703;28;20049;-93
2023/03/20 04:53:30;;;;;;;0.05;0.00;;;;;;;;;;4997258;28;20085;-94
2023/03/20 04:55:56;;;;;;;0.85;0.47;;;;;;;;;;4997008;28;20042;-94
2023/03/20 04:58:22;;;;;;;0.00;0.00;;;;;;;;;;4997152;28;20547;-94
2023/03/20 05:00:48;;;;;;;0.00;0.00;;;;;;;;;;5015244;28;20053;-93
2023/03/20 05:03:14;;;;;;;0.00;0.00;;;;;;;;;;4997871;28;20041;-93
2023/03/20 05:05:40;;;;;;;0.00;0.00;;;;;;;;;;4997250;28;20406;-93
2023/03/20 05:08:06;;;;;;;0.00;0.00;;;;;;;;;;5023364;28;20184;-92
2023/03/20 05:10:32;;;;;;;0.13;0.00;;;;;;;;;;5033069;28;20103;-93
2023/03/20 05:12:58;;;;;;;0.28;0.00;;;;;;;;;;5033007;28;20042;-93
2023/03/20 05:15:25;;;;;;;0.00;0.00;;;;;;;;;;5032861;28;20041;-93
2023/03/20 05:17:51;;;;;;;0.00;0.00;;;;;;;;;;5033194;28;20076;-93
2023/03/20 05:20:18;;;;;;;0.00;0.00;;;;;;;;;;5032858;28;20045;-94
2023/03/20 05:22:44;;;;;;;0.00;0.00;;;;;;;;;;5033145;28;20048;-93
2023/03/20 05:25:10;;;;;;;0.00;0.00;;;;;;;;;;5033002;28;20113;-95
2023/03/20 05:27:36;;;;;;;0.05;0.00;;;;;;;;;;5033978;28;20099;-94
2023/03/20 05:30:03;;;;;;;0.00;0.00;;;;;;;;;;5032726;28;20049;-93
2023/03/20 05:32:29;;;;;;;0.00;0.00;;;;;;;;;;5032514;28;20099;-93
2023/03/20 05:34:55;;;;;;;0.00;0.00;;;;;;;;;;5032886;28;20485;-93
2023/03/20 05:37:21;;;;;;;0.05;0.00;;;;;;;;;;5032978;28;20057;-94
2023/03/20 05:39:47;;;;;;;0.15;0.10;;;;;;;;;;5032627;28;20057;-94
2023/03/20 05:42:13;;;;;;;0.00;0.00;;;;;;;;;;5032741;28;20397;-92
2023/03/20 05:44:39;;;;;;;0.00;0.00;;;;;;;;;;5032718;28;20038;-94
2023/03/20 05:47:05;;;;;;;0.00;0.00;;;;;;;;;;5032702;28;20131;-94
2023/03/20 05:49:31;;;;;;;0.00;0.00;;;;;;;;;;5032552;28;20045;-94
2023/03/20 05:51:57;;;;;;;0.00;0.00;;;;;;;;;;5032918;28;20045;-93
2023/03/20 05:54:23;;;;;;;0.10;0.10;;;;;;;;;;5033036;28;20124;-92
2023/03/20 05:56:50;;;;;;;0.30;0.17;;;;;;;;;;5032437;28;20046;-93
2023/03/20 05:59:16;;;;;;;0.00;0.00;;;;;;;;;;5033007;28;20044;-92
2023/03/20 06:01:43;;;;;;;0.00;0.00;;;;;;;;;;5032349;28;20049;-94
2023/03/20 06:04:09;;;;;;;0.00;0.00;;;;;;;;;;5032677;28;20042;-94
2023/03/20 06:06:36;;;;;;;0.00;0.00;;;;;;;;;;5030178;28;20100;-94
2023/03/20 06:09:03;;;;;;;0.08;0.08;;;;;;;;;;4996312;28;20085;-92
2023/03/20 06:11:29;;;;;;;0.00;0.00;;;;;;;;;;4996415;28;20045;-92
2023/03/20 06:13:57;;;;;;;0.00;0.00;;;;;;;;;;4996475;28;20449;-93
2023/03/20 06:16:23;;;;;;;0.00;0.00;;;;;;;;;;4996096;28;20053;-94
2023/03/20 06:18:49;;;;;;;0.30;0.17;;;;;;;;;;4980367;28;20098;-93
2023/03/20 06:21:15;;;;;;;0.00;0.00;;;;;;;;;;4996060;28;20050;-92
2023/03/20 06:23:41;;;;;;;0.10;0.10;;;;;;;;;;4996164;28;20077;-92
2023/03/20 06:26:07;;;;;;;0.38;0.22;;;;;;;;;;4996142;28;20073;-93
2023/03/20 06:28:34;;;;;;;0.00;0.00;;;;;;;;;;4996322;28;20046;-93
2023/03/20 06:31:00;;;;;;;0.80;0.00;;;;;;;;;;4995893;28;20041;-93
2023/03/20 06:33:26;;;;;;;0.55;0.17;;;;;;;;;;4979962;28;20409;-93
2023/03/20 06:35:52;;;;;;;0.00;0.00;;;;;;;;;;4996283;28;20042;-92
2023/03/20 06:38:18;;;;;;;0.00;0.00;;;;;;;;;;4996534;28;20050;-94
2023/03/20 06:40:44;;;;;;;0.10;0.00;;;;;;;;;;4979903;28;20046;-93
2023/03/20 06:43:11;;;;;;;0.00;0.00;;;;;;;;;;4996381;28;20037;-93
2023/03/20 06:45:37;;;;;;;0.30;0.10;;;;;;;;;;4985874;28;20469;-95
2023/03/20 06:48:07;;;;;;;0.70;0.15;;;;;;;;;;4983907;28;20099;-94
2023/03/20 06:50:33;;;;;;;0.00;0.00;;;;;;;;;;4999881;28;20041;-93
2023/03/20 06:52:59;;;;;;;0.10;0.00;;;;;;;;;;4999396;28;20355;-93
2023/03/20 06:55:25;;;;;;;0.00;0.00;;;;;;;;;;5017127;28;20069;-95
2023/03/20 06:57:54;;;;;;;0.00;0.00;;;;;;;;;;4999573;28;20385;-93
2023/03/20 07:00:20;;;;;;;0.45;0.20;;;;;;;;;;4999017;28;20093;-92
2023/03/20 07:02:47;;;;;;;0.00;0.00;;;;;;;;;;4999548;28;20042;-93
2023/03/20 07:05:14;;;;;;;0.00;0.00;;;;;;;;;;4999318;28;20044;-93
2023/03/20 07:07:40;;;;;;;0.00;0.00;;;;;;;;;;5018151;28;20103;-92
2023/03/20 07:10:06;;;;;;;0.00;0.00;;;;;;;;;;5036443;28;20085;-95
2023/03/20 07:12:33;;;;;;;0.00;0.00;;;;;;;;;;5035092;28;20093;-91
2023/03/20 07:15:00;;;;;;;0.03;0.03;;;;;;;;;;5035212;28;20041;-95
2023/03/20 07:17:26;;;;;;;0.00;0.00;;;;;;;;;;5036318;28;20049;-94
2023/03/20 07:19:55;;;;;;;0.00;0.00;;;;;;;;;;5035514;28;20052;-95
2023/03/20 07:22:22;;;;;;;0.03;0.03;;;;;;;;;;5036381;28;20048;-94
2023/03/20 07:24:49;;;;;;;0.45;0.10;;;;;;;;;;5043706;28;20042;-91
2023/03/20 07:27:15;;;;;;;0.00;0.00;;;;;;;;;;5049867;28;20069;-92
2023/03/20 07:29:47;;;;;;;0.80;0.80;;;;;;;;;;5052238;28;20045;-91
2023/03/20 07:32:13;;;;;;;0.00;0.00;;;;;;;;;;5049090;28;20037;-90
2023/03/20 07:34:39;;;;;;;0.10;0.00;;;;;;;;;;5055435;28;20049;-90
2023/03/20 07:37:06;;;;;;;0.00;0.00;;;;;;;;;;5053065;28;20037;-90
2023/03/20 07:39:32;;;;;;;0.00;0.00;;;;;;;;;;5052767;28;20120;-90
2023/03/20 07:41:58;;;;;;;0.00;0.00;;;;;;;;;;5052980;28;20044;-89
2023/03/20 07:44:24;;;;;;;0.28;0.08;;;;;;;;;;5052289;28;20130;-90
2023/03/20 07:46:50;;;;;;;0.00;0.00;;;;;;;;;;5052454;28;20205;-91
2023/03/20 07:49:20;;;;;;;0.55;0.00;;;;;;;;;;5052470;28;20211;-92
2023/03/20 07:51:46;;;;;;;0.00;0.00;;;;;;;;;;5055801;28;20041;-90
2023/03/20 07:54:12;;;;;;;0.30;0.22;;;;;;;;;;5056265;28;20045;-91
2023/03/20 07:56:38;;;;;;;0.00;0.00;;;;;;;;;;5055132;28;20044;-91
2023/03/20 07:59:07;;;;;;;0.00;0.00;;;;;;;;;;5055222;28;20053;-92
2023/03/20 08:01:33;;;;;;;0.50;0.17;;;;;;;;;;5054697;28;20042;-91
2023/03/20 08:03:59;;;;;;;0.20;0.00;;;;;;;;;;5055534;28;20043;-90
2023/03/20 08:06:25;;;;;;;0.00;0.00;;;;;;;;;;5017482;28;20041;-93
2023/03/20 08:08:54;;;;;;;0.00;0.00;;;;;;;;;;4982780;28;20053;-94
2023/03/20 08:11:20;;;;;;;0.00;0.00;;;;;;;;;;4998425;28;20478;-92
2023/03/20 08:13:46;;;;;;;0.10;0.10;;;;;;;;;;4998801;28;20206;-95
2023/03/20 08:16:12;;;;;;;0.03;0.03;;;;;;;;;;4984498;28;20501;-93
2023/03/20 08:18:38;;;;;;;0.00;0.00;;;;;;;;;;5000412;28;20055;-93
2023/03/20 08:21:04;;;;;;;0.65;0.30;;;;;;;;;;4998288;28;20485;-93
2023/03/20 08:23:30;;;;;;;0.50;0.17;;;;;;;;;;4981827;28;20038;-93
2023/03/20 08:25:56;;;;;;;0.30;0.03;;;;;;;;;;4997867;28;20042;-91
2023/03/20 08:28:23;;;;;;;0.00;0.00;;;;;;;;;;4997603;28;20500;-91
2023/03/20 08:30:58;;;;;;;0.45;0.32;;;;;;;;;;4981347;28;20117;-95
2023/03/20 08:33:24;;;;;;;0.60;0.10;;;;;;;;;;4997811;28;20045;-94
2023/03/20 08:35:57;;;;;;;0.10;0.10;;;;;;;;;;4998501;28;20046;-94
2023/03/20 08:38:26;;;;;;;0.00;0.00;;;;;;;;;;4986410;28;20482;-94
2023/03/20 08:40:53;;;;;;;0.00;0.00;;;;;;;;;;4998910;28;20042;-93
2023/03/20 08:43:19;;;;;;;0.00;0.00;;;;;;;;;;4997344;28;20037;-92
2023/03/20 08:45:46;;;;;;;0.00;0.00;;;;;;;;;;4997328;28;20466;-91
2023/03/20 08:48:12;;;;;;;0.05;0.00;;;;;;;;;;4981421;28;20042;-92
2023/03/20 08:50:38;;;;;;;0.00;0.00;;;;;;;;;;4999394;28;20037;-94
2023/03/20 08:53:06;;;;;;;0.00;0.00;;;;;;;;;;4999342;28;20121;-93
2023/03/20 08:55:32;;;;;;;0.00;0.00;;;;;;;;;;4981084;28;20049;-93
2023/03/20 08:57:58;;;;;;;0.80;0.38;;;;;;;;;;4983047;28;20515;-94
2023/03/20 09:00:24;;;;;;;1.77;0.10;;;;;;;;;;4997968;28;20056;-93
2023/03/20 09:02:51;;;;;;;0.20;0.13;;;;;;;;;;4998541;28;20104;-93
2023/03/20 09:05:17;;;;;;;0.00;0.00;;;;;;;;;;4998811;28;20042;-93
2023/03/20 09:07:43;;;;;;;0.00;0.00;;;;;;;;;;5004278;28;20500;-94
2023/03/20 09:10:13;;;;;;;0.05;0.00;;;;;;;;;;5017532;28;20053;-93
2023/03/20 09:12:40;;;;;;;0.00;0.00;;;;;;;;;;5034734;28;20139;-93
2023/03/20 09:15:07;;;;;;;0.00;0.00;;;;;;;;;;5033844;28;20097;-96
2023/03/20 09:17:33;;;;;;;0.08;0.03;;;;;;;;;;5035565;28;20045;-95
2023/03/20 09:19:59;;;;;;;0.00;0.00;;;;;;;;;;5033941;28;20046;-94
2023/03/20 09:22:25;;;;;;;0.00;0.00;;;;;;;;;;5034457;28;20076;-93
2023/03/20 09:24:54;;;;;;;0.10;0.00;;;;;;;;;;5034452;28;20068;-94
2023/03/20 09:27:20;;;;;;;0.00;0.00;;;;;;;;;;5035851;28;20048;-94
2023/03/20 09:29:46;;;;;;;0.00;0.00;;;;;;;;;;5036263;28;20072;-93
2023/03/20 09:32:14;;;;;;;0.00;0.00;;;;;;;;;;5036216;28;20064;-91
2023/03/20 09:34:40;;;;;;;0.00;0.00;;;;;;;;;;5033346;28;20128;-94
2023/03/20 09:37:07;;;;;;;1.15;0.28;;;;;;;;;;5033400;28;20047;-92
2023/03/20 09:39:34;;;;;;;0.30;0.10;;;;;;;;;;5032728;28;20540;-92
2023/03/20 09:42:06;;;;;;;0.00;0.00;;;;;;;;;;5035444;28;20041;-94
2023/03/20 09:44:48;;;;;;;0.00;0.00;;;;;;;;;;5033680;28;20042;-93
2023/03/20 09:47:34;;;;;;;0.30;0.00;;;;;;;;;;5012010;28;20042;-94
2023/03/20 09:50:04;;;;;;;0.00;0.00;;;;;;;;;;5033636;28;20107;-93
2023/03/20 09:52:31;;;;;;;0.00;0.00;;;;;;;;;;5033705;28;20469;-91
2023/03/20 09:55:00;;;;;;;0.80;0.30;;;;;;;;;;5034352;28;20041;-92
2023/03/20 09:57:28;;;;;;;0.32;0.32;;;;;;;;;;5032561;28;20041;-91
2023/03/20 10:00:02;;;;;;;0.00;0.00;;;;;;;;;;5032277;28;20037;-92
2023/03/20 10:02:35;;;;;;;0.10;0.10;;;;;;;;;;5028123;28;20046;-89
2023/03/20 10:05:01;;;;;;;0.10;0.00;;;;;;;;;;5016868;28;20400;-91
2023/03/20 10:07:27;;;;;;;0.47;0.40;;;;;;;;;;5031754;28;20065;-91
2023/03/20 10:09:55;;;;;;;0.32;0.05;;;;;;;;;;5033273;28;20057;-90
2023/03/20 10:12:24;;;;;;;0.00;0.00;;;;;;;;;;5031901;28;20049;-91
2023/03/20 10:15:02;;;;;;;0.00;0.00;;;;;;;;;;5032488;28;20049;-94
2023/03/20 10:17:31;;;;;;;1.48;0.10;;;;;;;;;;5032041;28;20111;-92
2023/03/20 10:19:58;;;;;;;0.00;0.00;;;;;;;;;;5035040;28;20037;-92
2023/03/20 10:22:30;;;;;;;0.20;0.17;;;;;;;;;;5035614;28;20086;-93
2023/03/20 10:25:00;;;;;;;0.00;0.00;;;;;;;;;;5036227;28;20394;-92
2023/03/20 10:27:31;;;;;;;0.00;0.00;;;;;;;;;;5019499;28;20052;-93
2023/03/20 10:29:57;;;;;;;0.80;0.80;;;;;;;;;;5037196;28;20041;-93
2023/03/20 10:32:28;;;;;;;0.00;0.00;;;;;;;;;;5036488;28;20045;-92
2023/03/20 10:34:57;;;;;;;0.00;0.00;;;;;;;;;;5036143;28;20045;-91
2023/03/20 10:37:23;;;;;;;1.00;0.30;;;;;;;;;;5035473;28;20094;-93
2023/03/20 10:40:03;;;;;;;0.13;0.10;;;;;;;;;;5035148;28;20132;-92
2023/03/20 10:42:39;;;;;;;1.02;0.28;;;;;;;;;;5018598;28;20528;-92
2023/03/20 10:45:17;;;;;;;0.65;0.08;;;;;;;;;;5036121;28;20040;-91
2023/03/20 10:47:45;;;;;;;0.00;0.00;;;;;;;;;;5035235;28;20220;-94
2023/03/20 10:50:16;;;;;;;0.00;0.00;;;;;;;;;;5039153;28;20077;-93
2023/03/20 10:52:42;;;;;;;0.28;0.25;;;;;;;;;;5037127;28;20048;-93
2023/03/20 10:55:14;;;;;;;0.00;0.00;;;;;;;;;;5035525;28;20049;-94
2023/03/20 10:57:46;;;;;;;0.30;0.22;;;;;;;;;;5035016;28;20079;-93
2023/03/20 11:00:18;;;;;;;0.32;0.28;;;;;;;;;;5019326;28;20045;-94
2023/03/20 11:02:47;;;;;;;0.00;0.00;;;;;;;;;;5037890;28;20190;-93
2023/03/20 11:05:27;;;;;;;0.28;0.05;;;;;;;;;;5045857;28;20110;-94
2023/03/20 11:08:01;;;;;;;0.00;0.00;;;;;;;;;;5022883;28;20060;-91
2023/03/20 11:10:27;;;;;;;0.10;0.00;;;;;;;;;;5017161;28;20077;-94
2023/03/20 11:12:54;;;;;;;0.00;0.00;;;;;;;;;;5000400;28;20056;-93
2023/03/20 11:15:28;;;;;;;0.55;0.30;;;;;;;;;;5005476;28;20105;-94
2023/03/20 11:18:06;;;;;;;0.30;0.10;;;;;;;;;;4988052;28;20312;-93
2023/03/20 11:20:33;;;;;;;0.00;0.00;;;;;;;;;;4992709;28;20041;-93
2023/03/20 11:23:02;;;;;;;0.00;0.00;;;;;;;;;;5008068;28;20127;-92
2023/03/20 11:25:31;;;;;;;0.00;0.00;;;;;;;;;;5017063;28;20038;-93
2023/03/20 11:27:58;;;;;;;0.00;0.00;;;;;;;;;;5016416;28;20087;-92
2023/03/20 11:30:24;;;;;;;0.00;0.00;;;;;;;;;;5016191;28;20080;-93
2023/03/20 11:32:54;;;;;;;0.05;0.00;;;;;;;;;;4998950;28;20046;-92
2023/03/20 11:35:21;;;;;;;0.00;0.00;;;;;;;;;;5017365;28;20072;-94
2023/03/20 11:37:48;;;;;;;0.00;0.00;;;;;;;;;;5002894;28;20037;-94
2023/03/20 11:40:16;;;;;;;0.00;0.00;;;;;;;;;;4986819;28;20046;-94
2023/03/20 11:42:53;;;;;;;0.00;0.00;;;;;;;;;;5021035;28;20037;-93
2023/03/20 11:45:19;;;;;;;0.05;0.05;;;;;;;;;;4984001;28;20048;-93
2023/03/20 11:47:49;;;;;;;6.90;2.88;;;;;;;;;;5002166;28;20097;-93
2023/03/20 11:50:25;;;;;;;0.00;0.00;;;;;;;;;;5000759;28;20045;-91
2023/03/20 11:52:54;;;;;;;0.00;0.00;;;;;;;;;;4984967;28;20507;-92
2023/03/20 11:55:26;;;;;;;0.00;0.00;;;;;;;;;;5001588;28;20046;-94
2023/03/20 11:57:56;;;;;;;0.00;0.00;;;;;;;;;;4999389;28;20045;-92
2023/03/20 12:00:36;;;;;;;0.00;0.00;;;;;;;;;;4997579;28;20038;-93
2023/03/20 12:03:03;;;;;;;0.00;0.00;;;;;;;;;;5015717;28;20049;-93
2023/03/20 12:05:32;;;;;;;0.10;0.10;;;;;;;;;;4997885;28;20578;-93
2023/03/20 12:08:19;;;;;;;0.00;0.00;;;;;;;;;;5005013;28;20057;-91
2023/03/20 12:10:48;;;;;;;0.20;0.00;;;;;;;;;;5036801;28;20045;-95
2023/03/20 12:13:17;;;;;;;0.17;0.17;;;;;;;;;;5034111;28;20127;-94
2023/03/20 12:15:52;;;;;;;0.10;0.05;;;;;;;;;;5033693;28;20045;-92
2023/03/20 12:18:17;;;;;;;0.32;0.10;;;;;;;;;;5034743;28;20053;-90
2023/03/20 12:21:04;;;;;;;0.00;0.00;;;;;;;;;;5033707;28;20049;-93
2023/03/20 12:23:31;;;;;;;0.20;0.13;;;;;;;;;;5033593;28;20045;-93
2023/03/20 12:26:01;;;;;;;0.00;0.00;;;;;;;;;;5034927;28;20528;-91
2023/03/20 12:28:42;;;;;;;0.10;0.10;;;;;;;;;;5033850;28;20090;-92
2023/03/20 12:31:26;;;;;;;1.80;0.17;;;;;;;;;;5034128;28;20048;-93
2023/03/20 12:34:12;;;;;;;0.10;0.10;;;;;;;;;;5033444;28;20057;-92
2023/03/20 12:36:41;;;;;;;0.00;0.00;;;;;;;;;;5033628;28;20507;-94
2023/03/20 12:39:24;;;;;;;0.00;0.00;;;;;;;;;;5033622;28;20484;-94
2023/03/20 12:42:17;;;;;;;0.00;0.00;;;;;;;;;;5034112;28;20079;-93
2023/03/20 12:44:43;;;;;;;0.00;0.00;;;;;;;;;;5033754;28;20053;-93
2023/03/20 12:47:28;;;;;;;0.00;0.00;;;;;;;;;;5034193;28;20091;-93
2023/03/20 12:50:03;;;;;;;0.13;0.10;;;;;;;;;;5034550;28;20056;-93
2023/03/20 12:52:43;;;;;;;0.00;0.00;;;;;;;;;;5034453;28;20103;-94
2023/03/20 12:55:12;;;;;;;0.00;0.00;;;;;;;;;;5016511;28;20041;-93
2023/03/20 12:57:44;;;;;;;0.00;0.00;;;;;;;;;;5033145;28;20037;-94
2023/03/20 13:00:10;;;;;;;0.10;0.00;;;;;;;;;;5035330;28;20041;-92
2023/03/20 13:02:45;;;;;;;0.00;0.00;;;;;;;;;;5032926;28;20412;-91
2023/03/20 13:05:30;;;;;;;0.10;0.00;;;;;;;;;;5016616;28;20080;-92
2023/03/20 13:08:10;;;;;;;0.00;0.00;;;;;;;;;;5009651;28;20054;-92
2023/03/20 13:10:38;;;;;;;0.20;0.10;;;;;;;;;;4996661;28;20523;-93
2023/03/20 13:13:10;;;;;;;0.00;0.00;;;;;;;;;;4980484;28;20093;-92
2023/03/20 13:15:46;;;;;;;0.00;0.00;;;;;;;;;;4996882;28;20260;-93
2023/03/20 13:18:18;;;;;;;0.00;0.00;;;;;;;;;;5015221;28;20072;-94
2023/03/20 13:20:51;;;;;;;0.00;0.00;;;;;;;;;;4980624;28;20088;-92
2023/03/20 13:23:44;;;;;;;0.00;0.00;;;;;;;;;;4996992;28;20049;-93
2023/03/20 13:26:18;;;;;;;0.00;0.00;;;;;;;;;;4995929;28;20104;-92
2023/03/20 13:29:07;;;;;;;0.10;0.00;;;;;;;;;;4996654;28;20071;-92
2023/03/20 13:31:45;;;;;;;0.00;0.00;;;;;;;;;;5004415;28;20049;-93
2023/03/20 13:34:17;;;;;;;0.20;0.03;;;;;;;;;;4996707;28;20049;-93
2023/03/20 13:37:02;;;;;;;0.00;0.00;;;;;;;;;;4980639;28;20125;-93
2023/03/20 13:39:47;;;;;;;0.05;0.00;;;;;;;;;;5014017;28;20103;-94
2023/03/20 13:42:21;;;;;;;0.00;0.00;;;;;;;;;;4996943;28;20058;-93
2023/03/20 13:44:51;;;;;;;0.35;0.00;;;;;;;;;;4980734;28;20045;-93
2023/03/20 13:47:27;;;;;;;0.40;0.00;;;;;;;;;;4997343;28;20056;-92
2023/03/20 13:49:59;;;;;;;0.00;0.00;;;;;;;;;;4997256;28;20129;-95
2023/03/20 13:52:30;;;;;;;0.08;0.08;;;;;;;;;;4997253;28;20050;-94
2023/03/20 13:55:15;;;;;;;0.55;0.55;;;;;;;;;;5000664;28;20612;-92
2023/03/20 13:57:54;;;;;;;0.00;0.00;;;;;;;;;;5000884;28;20095;-91
2023/03/20 14:00:27;;;;;;;0.00;0.00;;;;;;;;;;4999860;28;20073;-92
2023/03/20 14:02:53;;;;;;;0.17;0.10;;;;;;;;;;5000255;28;20053;-93
2023/03/20 14:05:21;;;;;;;0.00;0.00;;;;;;;;;;5000214;28;20042;-91
2023/03/20 14:07:49;;;;;;;0.00;0.00;;;;;;;;;;5021563;28;20054;-89
2023/03/20 14:10:20;;;;;;;0.00;0.00;;;;;;;;;;5037325;28;20049;-92
2023/03/20 14:12:49;;;;;;;0.20;0.00;;;;;;;;;;5036180;28;20045;-93
2023/03/20 14:15:18;;;;;;;0.00;0.00;;;;;;;;;;5037555;28;20117;-92
2023/03/20 14:17:46;;;;;;;0.00;0.00;;;;;;;;;;5036419;28;20488;-92
2023/03/20 14:20:22;;;;;;;0.00;0.00;;;;;;;;;;5036270;28;20053;-90
2023/03/20 14:22:49;;;;;;;0.00;0.00;;;;;;;;;;5036326;28;20048;-90
2023/03/20 14:25:17;;;;;;;0.00;0.00;;;;;;;;;;5035881;28;20431;-92
2023/03/20 14:27:54;;;;;;;0.00;0.00;;;;;;;;;;5036216;28;20435;-93
2023/03/20 14:30:29;;;;;;;0.00;0.00;;;;;;;;;;5035931;28;20108;-92
2023/03/20 14:33:04;;;;;;;0.00;0.00;;;;;;;;;;5035890;28;20492;-94
2023/03/20 14:35:38;;;;;;;0.00;0.00;;;;;;;;;;5035687;28;20045;-94
2023/03/20 14:38:10;;;;;;;0.00;0.00;;;;;;;;;;5036064;28;20043;-92
2023/03/20 14:40:40;;;;;;;0.00;0.00;;;;;;;;;;5035694;28;20436;-91
2023/03/20 14:43:13;;;;;;;0.00;0.00;;;;;;;;;;5036106;28;20040;-92
2023/03/20 14:45:44;;;;;;;0.00;0.00;;;;;;;;;;5035516;28;20037;-92
2023/03/20 14:48:25;;;;;;;0.00;0.00;;;;;;;;;;5035579;28;20045;-91
2023/03/20 14:51:02;;;;;;;0.00;0.00;;;;;;;;;;5035705;28;20041;-92
2023/03/20 14:53:28;;;;;;;0.20;0.10;;;;;;;;;;5035322;28;20136;-92
2023/03/20 14:55:57;;;;;;;0.00;0.00;;;;;;;;;;5035640;28;20171;-91
2023/03/20 14:58:45;;;;;;;0.00;0.00;;;;;;;;;;5035642;28;20049;-91